Time,TemperatureF,DewpointF,PressureIn,WindDirection,WindDirectionDegrees,WindSpeedMPH,WindSpeedGustMPH,Humidity,HourlyPrecipIn,Conditions,Clouds,dailyrainin,SolarRadiationWatts/m^2,SoftwareType,DateUTC
2013-01-27 00:14:00,49.6,46.0,29.84,SW,232,0.0,1.0,88,0.04,,,0.02,0,weatherlink.com 1.10,2013-01-27 07:14:00,
2013-01-27 00:28:00,49.2,46.0,29.85,SW,232,1.0,1.0,89,0.08,,,0.06,0,weatherlink.com 1.10,2013-01-27 07:28:00,
2013-01-27 00:43:00,48.7,46.0,29.85,SW,233,0.0,1.0,90,0.09,,,0.07,0,weatherlink.com 1.10,2013-01-27 07:43:00,
2013-01-27 00:58:00,48.5,46.0,29.85,SW,233,0.0,0.0,91,0.09,,,0.08,0,weatherlink.com 1.10,2013-01-27 07:58:00,
2013-01-27 01:13:00,48.3,46.0,29.85,SW,233,0.0,0.0,91,0.08,,,0.09,0,weatherlink.com 1.10,2013-01-27 08:13:00,
2013-01-27 01:28:00,48.2,46.0,29.85,SW,233,0.0,0.0,92,0.04,,,0.10,0,weatherlink.com 1.10,2013-01-27 08:28:00,
2013-01-27 01:43:00,48.2,46.0,29.85,SW,233,1.0,1.0,92,0.04,,,0.11,0,weatherlink.com 1.10,2013-01-27 08:43:00,
2013-01-27 01:58:00,48.2,46.0,29.86,WSW,239,2.0,7.0,93,0.06,,,0.14,0,weatherlink.com 1.10,2013-01-27 08:58:00,
2013-01-27 02:14:00,47.8,46.0,29.86,SSW,211,0.0,5.0,93,0.08,,,0.17,0,weatherlink.com 1.10,2013-01-27 09:14:00,
2013-01-27 02:28:00,47.7,46.0,29.85,SSW,211,0.0,1.0,93,0.07,,,0.17,0,weatherlink.com 1.10,2013-01-27 09:28:00,
2013-01-27 02:43:00,47.6,46.0,29.85,SSW,211,0.0,0.0,93,0.06,,,0.17,0,weatherlink.com 1.10,2013-01-27 09:43:00,
2013-01-27 02:58:00,47.6,46.0,29.85,SSW,211,0.0,0.0,93,0.03,,,0.17,0,weatherlink.com 1.10,2013-01-27 09:58:00,
2013-01-27 03:14:00,47.5,46.0,29.85,WSW,245,0.0,3.0,94,0.01,,,0.18,0,weatherlink.com 1.10,2013-01-27 10:14:00,
2013-01-27 03:28:00,47.6,46.0,29.85,WSW,242,0.0,2.0,94,0.05,,,0.22,0,weatherlink.com 1.10,2013-01-27 10:28:00,
2013-01-27 03:43:00,47.5,46.0,29.85,SSW,212,4.0,4.0,94,0.06,,,0.23,0,weatherlink.com 1.10,2013-01-27 10:43:00,
2013-01-27 03:58:00,47.4,46.0,29.84,SW,219,0.0,1.0,94,0.08,,,0.25,0,weatherlink.com 1.10,2013-01-27 10:58:00,
2013-01-27 04:13:00,47.3,46.0,29.84,SW,225,3.0,4.0,94,0.09,,,0.27,0,weatherlink.com 1.10,2013-01-27 11:13:00,
2013-01-27 04:28:00,47.0,45.0,29.84,SW,214,3.0,7.0,94,0.06,,,0.28,0,weatherlink.com 1.10,2013-01-27 11:28:00,
2013-01-27 04:43:00,46.9,45.0,29.84,South,188,0.0,2.0,94,0.05,,,0.29,0,weatherlink.com 1.10,2013-01-27 11:43:00,
2013-01-27 04:59:00,46.7,45.0,29.84,WSW,240,3.0,4.0,94,0.05,,,0.30,0,weatherlink.com 1.10,2013-01-27 11:59:00,
2013-01-27 05:13:00,46.6,45.0,29.84,West,274,4.0,4.0,94,0.03,,,0.30,0,weatherlink.com 1.10,2013-01-27 12:13:00,
2013-01-27 05:28:00,46.5,45.0,29.84,West,273,0.0,0.0,94,0.02,,,0.30,0,weatherlink.com 1.10,2013-01-27 12:28:00,
2013-01-27 05:43:00,46.4,45.0,29.85,West,273,0.0,0.0,94,0.02,,,0.31,0,weatherlink.com 1.10,2013-01-27 12:43:00,
2013-01-27 05:59:00,46.3,45.0,29.85,WNW,293,0.0,1.0,94,0.01,,,0.31,0,weatherlink.com 1.10,2013-01-27 12:59:00,
2013-01-27 06:13:00,46.3,45.0,29.85,WNW,293,0.0,1.0,94,0.01,,,0.31,0,weatherlink.com 1.10,2013-01-27 13:13:00,
2013-01-27 06:29:00,46.1,45.0,29.85,WNW,293,0.0,1.0,94,0.01,,,0.31,0,weatherlink.com 1.10,2013-01-27 13:29:00,
2013-01-27 06:44:00,45.9,44.0,29.85,NW,316,0.0,1.0,94,0.00,,,0.31,0,weatherlink.com 1.10,2013-01-27 13:44:00,
2013-01-27 06:59:00,46.0,44.0,29.86,East,89,1.0,4.0,94,0.00,,,0.31,0,weatherlink.com 1.10,2013-01-27 13:59:00,
2013-01-27 07:14:00,46.3,45.0,29.86,East,92,0.0,2.0,94,0.00,,,0.31,0,weatherlink.com 1.10,2013-01-27 14:14:00,
2013-01-27 07:29:00,46.6,45.0,29.86,East,92,0.0,0.0,94,0.00,,,0.31,28,weatherlink.com 1.10,2013-01-27 14:29:00,
2013-01-27 07:44:00,46.8,46.0,29.87,East,92,0.0,0.0,95,0.00,,,0.31,39,weatherlink.com 1.10,2013-01-27 14:44:00,
2013-01-27 07:59:00,47.3,46.0,29.87,East,92,0.0,0.0,95,0.00,,,0.31,111,weatherlink.com 1.10,2013-01-27 14:59:00,
2013-01-27 08:13:00,47.9,46.0,29.87,East,97,0.0,1.0,94,0.00,,,0.31,42,weatherlink.com 1.10,2013-01-27 15:13:00,
2013-01-27 08:29:00,48.2,46.0,29.87,East,99,0.0,0.0,93,0.00,,,0.31,77,weatherlink.com 1.10,2013-01-27 15:29:00,
2013-01-27 08:43:00,48.5,47.0,29.88,East,99,0.0,0.0,93,0.00,,,0.31,95,weatherlink.com 1.10,2013-01-27 15:43:00,
2013-01-27 08:58:00,48.7,47.0,29.88,East,99,0.0,1.0,92,0.00,,,0.31,128,weatherlink.com 1.10,2013-01-27 15:58:00,
2013-01-27 09:14:00,49.1,47.0,29.89,East,99,0.0,0.0,91,0.00,,,0.31,165,weatherlink.com 1.10,2013-01-27 16:14:00,
2013-01-27 09:29:00,49.3,46.0,29.89,East,99,0.0,1.0,89,0.00,,,0.31,132,weatherlink.com 1.10,2013-01-27 16:29:00,
2013-01-27 09:44:00,49.9,46.0,29.89,South,189,1.0,4.0,87,0.00,,,0.31,216,weatherlink.com 1.10,2013-01-27 16:44:00,
2013-01-27 09:59:00,51.4,47.0,29.90,South,181,0.0,5.0,85,0.00,,,0.31,214,weatherlink.com 1.10,2013-01-27 16:59:00,
2013-01-27 10:14:00,52.0,47.0,29.89,SSE,148,0.0,3.0,82,0.00,,,0.31,163,weatherlink.com 1.10,2013-01-27 17:14:00,
2013-01-27 10:29:00,52.3,46.0,29.89,SSE,155,2.0,7.0,79,0.00,,,0.31,211,weatherlink.com 1.10,2013-01-27 17:29:00,
2013-01-27 10:44:00,52.4,45.0,29.89,SE,132,2.0,7.0,77,0.00,,,0.31,211,weatherlink.com 1.10,2013-01-27 17:44:00,
2013-01-27 10:59:00,52.5,45.0,29.89,WSW,238,0.0,8.0,75,0.00,,,0.31,105,weatherlink.com 1.10,2013-01-27 17:59:00,
2013-01-27 11:14:00,52.8,45.0,29.89,SSE,155,9.0,11.0,75,0.00,,,0.31,200,weatherlink.com 1.10,2013-01-27 18:14:00,
2013-01-27 11:29:00,53.1,46.0,29.89,SE,131,3.0,9.0,77,0.00,,,0.31,209,weatherlink.com 1.10,2013-01-27 18:29:00,
2013-01-27 11:44:00,53.9,46.0,29.88,South,176,4.0,8.0,74,0.00,,,0.31,248,weatherlink.com 1.10,2013-01-27 18:44:00,
2013-01-27 11:59:00,54.4,46.0,29.88,NW,307,3.0,11.0,72,0.00,,,0.31,336,weatherlink.com 1.10,2013-01-27 18:59:00,
2013-01-27 12:14:00,56.4,46.0,29.87,SSE,156,7.0,10.0,69,0.00,,,0.31,846,weatherlink.com 1.10,2013-01-27 19:14:00,
2013-01-27 12:29:00,56.4,46.0,29.86,SSW,198,6.0,13.0,68,0.00,,,0.31,450,weatherlink.com 1.10,2013-01-27 19:29:00,
2013-01-27 12:44:00,56.2,45.0,29.86,South,176,5.0,14.0,66,0.00,,,0.31,225,weatherlink.com 1.10,2013-01-27 19:44:00,
2013-01-27 12:59:00,55.8,45.0,29.85,SSE,151,12.0,15.0,67,0.00,,,0.31,257,weatherlink.com 1.10,2013-01-27 19:59:00,
2013-01-27 13:14:00,56.2,46.0,29.84,SSW,209,6.0,12.0,69,0.00,,,0.31,385,weatherlink.com 1.10,2013-01-27 20:14:00,
2013-01-27 13:30:00,56.0,46.0,29.84,SSE,160,5.0,16.0,68,0.00,,,0.31,234,weatherlink.com 1.10,2013-01-27 20:30:00,
2013-01-27 13:44:00,56.2,46.0,29.84,SSW,200,7.0,13.0,69,0.00,,,0.31,304,weatherlink.com 1.10,2013-01-27 20:44:00,
2013-01-27 13:59:00,57.0,44.0,29.84,West,279,2.0,13.0,62,0.00,,,0.31,450,weatherlink.com 1.10,2013-01-27 20:59:00,
2013-01-27 14:14:00,58.0,44.0,29.83,SSW,210,8.0,16.0,60,0.00,,,0.31,276,weatherlink.com 1.10,2013-01-27 21:14:00,
2013-01-27 14:29:00,57.2,44.0,29.83,SSW,205,10.0,15.0,62,0.00,,,0.31,174,weatherlink.com 1.10,2013-01-27 21:29:00,
2013-01-27 14:45:00,56.5,44.0,29.83,SSW,209,2.0,14.0,63,0.00,,,0.31,218,weatherlink.com 1.10,2013-01-27 21:45:00,
2013-01-27 15:00:00,56.1,44.0,29.83,South,171,4.0,11.0,65,0.00,,,0.31,123,weatherlink.com 1.10,2013-01-27 22:00:00,
2013-01-27 15:15:00,56.5,44.0,29.82,SSE,158,8.0,12.0,63,0.00,,,0.31,628,weatherlink.com 1.10,2013-01-27 22:15:00,
2013-01-27 15:30:00,56.8,45.0,29.82,SE,126,5.0,10.0,64,0.00,,,0.31,109,weatherlink.com 1.10,2013-01-27 22:30:00,
2013-01-27 15:45:00,56.4,45.0,29.82,SSW,200,5.0,8.0,65,0.00,,,0.31,156,weatherlink.com 1.10,2013-01-27 22:45:00,
2013-01-27 16:00:00,56.9,45.0,29.82,WSW,237,8.0,13.0,65,0.00,,,0.31,125,weatherlink.com 1.10,2013-01-27 23:00:00,
2013-01-27 16:15:00,56.2,45.0,29.82,SW,222,5.0,8.0,66,0.00,,,0.31,93,weatherlink.com 1.10,2013-01-27 23:15:00,
2013-01-27 16:30:00,55.8,45.0,29.82,SSW,210,6.0,7.0,67,0.00,,,0.31,39,weatherlink.com 1.10,2013-01-27 23:30:00,
2013-01-27 16:45:00,55.4,45.0,29.82,SE,146,3.0,5.0,69,0.00,,,0.31,40,weatherlink.com 1.10,2013-01-27 23:45:00,
2013-01-27 17:01:00,55.3,44.0,29.82,SW,219,4.0,10.0,67,0.00,,,0.31,35,weatherlink.com 1.10,2013-01-28 00:01:00,
2013-01-27 17:16:00,55.2,45.0,29.82,SSW,210,1.0,5.0,69,0.00,,,0.31,37,weatherlink.com 1.10,2013-01-28 00:16:00,
2013-01-27 17:30:00,54.9,44.0,29.82,East,86,0.0,6.0,67,0.00,,,0.31,14,weatherlink.com 1.10,2013-01-28 00:30:00,
2013-01-27 17:45:00,54.6,45.0,29.82,South,178,4.0,6.0,69,0.00,,,0.31,5,weatherlink.com 1.10,2013-01-28 00:45:00,
2013-01-27 18:00:00,53.9,45.0,29.82,SSW,201,0.0,5.0,71,0.00,,,0.31,0,weatherlink.com 1.10,2013-01-28 01:00:00,
2013-01-27 18:16:00,53.2,45.0,29.83,SW,222,2.0,6.0,73,0.00,,,0.31,0,weatherlink.com 1.10,2013-01-28 01:16:00,
2013-01-27 18:31:00,52.3,45.0,29.83,SSW,212,0.0,2.0,75,0.00,,,0.31,0,weatherlink.com 1.10,2013-01-28 01:31:00,
2013-01-27 18:47:00,51.3,44.0,29.83,SSW,212,0.0,1.0,77,0.00,,,0.31,0,weatherlink.com 1.10,2013-01-28 01:47:00,
2013-01-27 19:01:00,50.6,44.0,29.84,South,171,0.0,2.0,79,0.00,,,0.31,0,weatherlink.com 1.10,2013-01-28 02:01:00,
2013-01-27 19:16:00,50.4,44.0,29.84,SE,137,1.0,2.0,80,0.00,,,0.31,0,weatherlink.com 1.10,2013-01-28 02:16:00,
2013-01-27 19:31:00,50.3,45.0,29.84,SE,136,0.0,3.0,81,0.00,,,0.31,0,weatherlink.com 1.10,2013-01-28 02:31:00,
2013-01-27 19:46:00,50.2,45.0,29.84,SE,146,0.0,2.0,81,0.00,,,0.31,0,weatherlink.com 1.10,2013-01-28 02:46:00,
2013-01-27 20:01:00,49.9,44.0,29.84,SE,141,0.0,1.0,81,0.00,,,0.31,0,weatherlink.com 1.10,2013-01-28 03:01:00,
2013-01-27 20:16:00,49.2,44.0,29.84,ESE,115,1.0,2.0,82,0.00,,,0.31,0,weatherlink.com 1.10,2013-01-28 03:16:00,
2013-01-27 20:31:00,49.0,44.0,29.84,SE,127,2.0,3.0,84,0.00,,,0.31,0,weatherlink.com 1.10,2013-01-28 03:31:00,
2013-01-27 20:46:00,48.9,44.0,29.84,SW,230,0.0,4.0,84,0.00,,,0.31,0,weatherlink.com 1.10,2013-01-28 03:46:00,
2013-01-27 21:01:00,48.9,44.0,29.84,South,173,0.0,3.0,84,0.00,,,0.31,0,weatherlink.com 1.10,2013-01-28 04:01:00,
2013-01-27 21:16:00,48.6,44.0,29.84,SW,218,0.0,1.0,84,0.00,,,0.31,0,weatherlink.com 1.10,2013-01-28 04:16:00,
2013-01-27 21:31:00,47.8,43.0,29.84,SW,218,0.0,1.0,84,0.00,,,0.31,0,weatherlink.com 1.10,2013-01-28 04:31:00,
2013-01-27 21:47:00,47.4,43.0,29.84,SE,146,0.0,3.0,86,0.00,,,0.31,0,weatherlink.com 1.10,2013-01-28 04:47:00,
2013-01-27 22:16:00,47.5,44.0,29.85,SE,142,0.0,4.0,86,0.00,,,0.31,0,weatherlink.com 1.10,2013-01-28 05:16:00,
2013-01-27 22:31:00,47.4,43.0,29.85,SE,142,0.0,0.0,86,0.00,,,0.31,0,weatherlink.com 1.10,2013-01-28 05:31:00,
2013-01-27 22:48:00,47.2,44.0,29.85,SE,143,0.0,0.0,87,0.00,,,0.31,0,weatherlink.com 1.10,2013-01-28 05:48:00,
2013-01-27 23:01:00,46.9,44.0,29.85,SE,143,0.0,0.0,88,0.00,,,0.31,0,weatherlink.com 1.10,2013-01-28 06:01:00,
2013-01-27 23:16:00,46.8,44.0,29.85,SE,143,0.0,0.0,88,0.00,,,0.31,0,weatherlink.com 1.10,2013-01-28 06:16:00,
2013-01-27 23:32:00,47.0,44.0,29.85,SW,226,0.0,1.0,89,0.00,,,0.31,0,weatherlink.com 1.10,2013-01-28 06:32:00,
2013-01-27 23:46:00,47.4,44.0,29.85,SSW,211,0.0,2.0,89,0.00,,,0.31,0,weatherlink.com 1.10,2013-01-28 06:46:00,